AirNav   Bose Proflight aviation headeet
 
 828 users online  

7AL2 Peterson Field Airport
Steele, Alabama, USA

GOING TO STEELE?


FAA INFORMATION EFFECTIVE 03 JANUARY 2019

Location

FAA Identifier: 7AL2
Lat/Long: 33-51-53.3550N / 086-18-39.0090W
33-51.889250N / 086-18.650150W
33.8648208 / -86.3108358
(estimated)
Elevation: 600 ft. / 183 m
Time zone: UTC -6 (UTC -5 during Daylight Saving Time)
Zip code: 35953

Airport Operations

Airport use: Private use. Permission required prior to landing
Activation date: 01/2014
Control tower: no
ARTCC: ATLANTA CENTER
FSS: ANNISTON FLIGHT SERVICE STATION
Attendance: UNATNDD
Wind indicator: yes
Segmented circle: no

Airport Communications

WX AWOS-3PT at GAD (13 nm NE): 127.825 (256-442-7094)
WX AWOS-3P at PLR (19 nm S): 119.625 ((205) 884-4359)

Nearby radio navigation aids

VOR radial/distance  VOR name  Freq  Var
GADr237/13.1GADSDEN VOR/DME112.3002E
TDGr320/21.9TALLADEGA VOR/DME108.8002E
VUZr066/31.6VULCAN VORTAC114.4002E

Airport Services

Runway Information

Runway 17/35

Dimensions: 1000 x 50 ft. / 305 x 15 m
Surface: turf
RUNWAY 17  RUNWAY 35
Traffic pattern: leftleft
Obstructions: 110 ft. trees, 200 ft. from runway100 ft. trees, 100 ft. from runway

Airport Ownership and Management from official FAA records

Ownership: Privately-owned
Owner: JOSEPH MARVIN BROWN, JR.
100 BUSTER DRIVE
STEELE, AL 35967
Phone 205-362-7026
Manager: JOSEPH MARVIN BROWN, JR.
100 BUSTER DRIVE
STEELE, AL 35967
Phone 205-362-7026

Additional Remarks

OWNER WISHES FACILITY NOT BE CHARTED

Instrument Procedures

There are no published instrument procedures at 7AL2.

Some nearby airports with instrument procedures:

20A - Robbins Field Airport (7 nm NW)
KGAD - Northeast Alabama Regional Airport (13 nm NE)
KPLR - St Clair County Airport (19 nm S)
KASN - Talladega Municipal Airport (22 nm SE)
8A0 - Albertville Regional Airport-Thomas J Brumlik Field (22 nm N)
 
Loc | Ops | Rwys | IFR | FBO | Links
Com | Nav | Svcs | Stats | Notes
Aerial photo
No photo
 
Airport distance calculator
Flying to Peterson Field Airport? Find the distance to fly.

From to 7AL2

Sunrise and sunset
Times for 18-Jan-2019
 Local
(UTC-6)
 Zulu
(UTC)
Morning civil twilight06:2412:24
Sunrise06:5012:50
Sunset17:0123:01
Evening civil twilight17:2823:28

Current date and time
Zulu (UTC)  19-Jan-2019 02:59:41
Local (UTC-6)  18-Jan-2019 20:59:41
 
METAR
KGAD 
14nm NE 
190229Z AUTO 00000KT 6SM BR BKN021 08/08 A3005 RMK AO2
KPLR 
19nm S 
190255Z AUTO 00000KT 3SM BR FEW027 09/09 A3003 RMK A01
KASN 
22nm SE 
190235Z AUTO 00000KT 7SM CLR 09/09 A3003 RMK AO2 T00890088
K8A0 
22nm N 
190235Z AUTO 09007KT 7SM CLR 08/07 A3001 RMK AO2
TAF
KASN 
22nm SE 
181741Z 1818/1918 31003KT P6SM SCT009 BKN045 FM190000 VRB03KT 4SM BR OVC015 FM190700 14007KT 4SM BR OVC005 FM191000 17012KT 2SM -DZ OVC003 FM191400 18015G25KT 6SM SHRA BR OVC015
NOTAMs
Click for the latest NOTAMs
NOTAMs are issued by the DoD/FAA and will open in a separate window not controlled by AirNav.

 

 
 

Would you like to see your business listed on this page?

 If your business provides an interesting product or service to pilots, flight crews, aircraft, or users of the Peterson Field Airport, you should consider listing it here.  To start the listing process, click on the button below
 
Add a business
 

Other Pages about Peterson Field Airport

Update a link
 
Copyright © AirNav, LLC. All rights reserved. Privacy Policy  Contact